createdAt,value
2024-02-10T00:03:14.585Z,7.07
2024-02-10T00:08:16.260Z,4.80
2024-02-10T00:13:18.023Z,5.30
2024-02-10T00:18:19.924Z,5.80
2024-02-10T00:23:24.031Z,6.17
2024-02-10T00:28:26.558Z,5.97
2024-02-10T00:33:28.408Z,6.10
2024-02-10T00:38:31.846Z,6.67
2024-02-10T00:43:33.718Z,7.73
2024-02-10T00:48:35.420Z,10.63
2024-02-10T00:53:43.977Z,9.47
2024-02-10T00:58:46.495Z,8.40
2024-02-10T01:03:49.281Z,9.33
2024-02-10T01:08:52.138Z,10.10
2024-02-10T01:13:54.134Z,9.17
2024-02-10T01:18:56.236Z,8.10
2024-02-10T01:23:58.675Z,8.07
2024-02-10T01:29:00.409Z,8.20
2024-02-10T01:34:02.662Z,9.50
2024-02-10T01:39:04.459Z,9.17
2024-02-10T01:44:06.819Z,7.40
2024-02-10T01:49:10.068Z,7.63
2024-02-10T01:54:12.203Z,7.73
2024-02-10T01:59:13.917Z,7.37
2024-02-10T02:04:17.220Z,7.13
2024-02-10T02:09:18.965Z,5.77
2024-02-10T02:14:20.876Z,6.00
2024-02-10T02:19:22.596Z,6.10
2024-02-10T02:24:29.751Z,5.53
2024-02-10T02:29:32.841Z,5.40
2024-02-10T02:34:35.206Z,6.53
2024-02-10T02:39:37.710Z,5.90
2024-02-10T02:44:39.539Z,6.20
2024-02-10T02:49:41.254Z,7.10
2024-02-10T02:54:44.227Z,6.43
2024-02-10T02:59:47.755Z,5.83
2024-02-10T03:04:49.591Z,5.13
2024-02-10T03:09:51.264Z,5.90
2024-02-10T03:14:52.953Z,7.33
2024-02-10T03:19:54.751Z,9.53
2024-02-10T03:24:56.860Z,7.33
2024-02-10T03:29:58.576Z,8.73
2024-02-10T03:35:00.858Z,8.37
2024-02-10T03:40:10.578Z,8.17
2024-02-10T03:45:14.957Z,7.27
2024-02-10T03:50:16.761Z,8.27
2024-02-10T03:55:18.638Z,6.13
2024-02-10T04:00:27.308Z,6.70
2024-02-10T04:05:34.853Z,6.60
2024-02-10T04:10:36.921Z,6.37
2024-02-10T04:15:38.685Z,7.43
2024-02-10T04:20:45.847Z,8.83
2024-02-10T04:25:47.922Z,7.80
2024-02-10T04:30:52.282Z,6.93
2024-02-10T04:35:54.032Z,5.73
2024-02-10T04:40:57.182Z,6.03
2024-02-10T04:45:58.883Z,5.60
2024-02-10T04:51:00.910Z,5.90
2024-02-10T04:56:04.599Z,6.20
2024-02-10T05:01:06.329Z,6.00
2024-02-10T05:06:10.918Z,6.47
2024-02-10T05:11:12.688Z,6.23
2024-02-10T05:16:19.039Z,6.70
2024-02-10T05:21:23.994Z,6.57
2024-02-10T05:26:34.028Z,5.37
2024-02-10T05:31:38.707Z,4.87
2024-02-10T05:36:40.451Z,5.33
2024-02-10T05:41:42.173Z,5.30
2024-02-10T05:46:47.025Z,4.80
2024-02-10T05:51:50.175Z,5.27
2024-02-10T05:56:52.892Z,5.30
2024-02-10T06:01:54.981Z,6.20
2024-02-10T06:12:06.163Z,6.20
2024-02-10T06:17:07.860Z,5.97
2024-02-10T06:22:10.599Z,5.37
2024-02-10T06:27:12.225Z,5.60
2024-02-10T06:32:13.938Z,5.27
2024-02-10T06:37:15.650Z,4.90
2024-02-10T06:42:18.943Z,3.60
2024-02-10T06:47:22.839Z,4.63
2024-02-10T06:52:24.607Z,5.17
2024-02-10T06:57:28.551Z,5.73
2024-02-10T07:02:30.684Z,6.47
2024-02-10T07:07:32.988Z,5.90
2024-02-10T07:12:35.762Z,6.53
2024-02-10T07:17:37.649Z,9.03
2024-02-10T07:22:39.925Z,7.63
2024-02-10T07:27:41.627Z,10.20
2024-02-10T07:32:45.758Z,9.43
2024-02-10T07:37:49.276Z,10.00
2024-02-10T07:42:54.998Z,9.00
2024-02-10T07:47:57.402Z,7.17
2024-02-10T07:53:01.179Z,6.60
2024-02-10T07:58:05.870Z,9.57
2024-02-10T08:03:07.855Z,6.40
2024-02-10T08:08:10.479Z,6.90
2024-02-10T08:13:12.213Z,7.83
2024-02-10T08:18:14.365Z,7.13
2024-02-10T08:23:18.205Z,6.73
2024-02-10T08:28:20.346Z,8.70
2024-02-10T08:33:22.409Z,8.40
2024-02-10T08:38:24.229Z,8.73
2024-02-10T08:43:25.926Z,8.50
2024-02-10T08:48:28.148Z,8.73
2024-02-10T08:53:32.006Z,8.63
2024-02-10T08:58:34.031Z,8.80
2024-02-10T09:03:35.764Z,8.67
2024-02-10T09:08:39.032Z,9.27
2024-02-10T09:13:40.723Z,9.13
2024-02-10T09:18:45.583Z,9.23
2024-02-10T09:23:50.296Z,9.40
2024-02-10T09:28:52.023Z,8.77
2024-02-10T09:33:53.736Z,9.17
2024-02-10T09:38:55.690Z,9.63
2024-02-10T09:43:57.463Z,11.47
2024-02-10T09:48:59.550Z,13.07
2024-02-10T09:54:01.820Z,11.43
2024-02-10T09:59:04.712Z,11.13
2024-02-10T10:04:11.488Z,12.00
2024-02-10T10:09:16.265Z,13.23
2024-02-10T10:14:18.423Z,13.60
2024-02-10T10:19:21.191Z,13.40
2024-02-10T10:24:23.950Z,13.87
2024-02-10T10:29:26.077Z,13.43
2024-02-10T10:34:29.706Z,14.97
2024-02-10T10:39:34.311Z,14.87
2024-02-10T10:44:36.031Z,14.27
2024-02-10T10:49:38.000Z,14.13
2024-02-10T10:54:40.603Z,13.13
2024-02-10T10:59:47.276Z,12.63
2024-02-10T11:06:28.466Z,14.07
2024-02-10T11:11:40.509Z,13.67
2024-02-10T11:16:43.749Z,12.97
2024-02-10T11:21:47.864Z,12.47
2024-02-10T11:26:49.980Z,12.47
2024-02-10T11:31:51.626Z,12.73
2024-02-10T11:36:55.075Z,11.80
2024-02-10T11:41:59.378Z,11.53
2024-02-10T11:47:01.719Z,13.63
2024-02-10T11:52:03.868Z,11.20
2024-02-10T11:57:06.421Z,11.60
2024-02-10T12:02:09.822Z,11.30
2024-02-10T12:07:13.470Z,14.13
2024-02-10T12:12:16.869Z,12.07
2024-02-10T12:17:20.827Z,10.57
2024-02-10T12:22:23.715Z,11.20
2024-02-10T12:27:27.403Z,11.67
2024-02-10T12:32:30.280Z,11.57
2024-02-10T12:37:31.973Z,10.53
2024-02-10T12:42:33.595Z,11.27
2024-02-10T12:47:39.043Z,11.77
2024-02-10T12:52:41.555Z,11.33
2024-02-10T12:57:43.808Z,9.90
2024-02-10T13:02:49.846Z,10.50
2024-02-10T13:07:51.447Z,11.20
2024-02-10T13:12:58.060Z,10.27
2024-02-10T13:17:59.737Z,10.47
2024-02-10T13:23:03.820Z,10.63
2024-02-10T13:28:09.010Z,10.50
2024-02-10T13:33:11.023Z,10.70
2024-02-10T13:38:31.389Z,10.03
2024-02-10T13:43:51.759Z,9.90
2024-02-10T13:49:12.399Z,9.07
2024-02-10T13:54:33.089Z,8.93
2024-02-10T13:59:35.505Z,9.93
2024-02-10T14:04:49.037Z,9.73
2024-02-10T14:09:50.831Z,8.60
2024-02-10T14:14:52.657Z,8.43
2024-02-10T14:20:10.357Z,8.17
2024-02-10T14:25:20.052Z,8.50
2024-02-10T14:30:32.865Z,8.47
2024-02-10T14:35:50.972Z,9.00
2024-02-10T14:40:53.164Z,8.80
2024-02-10T14:45:54.857Z,9.00
2024-02-10T14:51:00.894Z,8.93
2024-02-10T14:56:05.682Z,9.10
2024-02-10T15:01:07.321Z,12.10
2024-02-10T15:06:24.869Z,16.57
2024-02-10T15:11:26.577Z,15.13
2024-02-10T15:16:28.533Z,17.90
2024-02-10T15:21:30.775Z,9.03
2024-02-10T15:26:33.322Z,9.20
2024-02-10T15:31:35.571Z,9.43
2024-02-10T15:36:40.036Z,8.20
2024-02-10T15:41:42.094Z,8.50
2024-02-10T15:46:45.930Z,10.10
2024-02-10T15:51:47.541Z,8.57
2024-02-10T15:56:49.872Z,8.90
2024-02-10T16:01:52.756Z,9.30
2024-02-10T16:06:55.427Z,11.97
2024-02-10T16:11:57.315Z,11.57
2024-02-10T16:16:58.978Z,29.37
2024-02-10T16:22:00.744Z,10.97
2024-02-10T16:27:02.332Z,15.03
2024-02-10T16:32:04.222Z,12.13
2024-02-10T16:37:13.735Z,12.40
2024-02-10T16:42:16.901Z,11.70
2024-02-10T16:47:18.461Z,9.87
2024-02-10T16:52:22.427Z,12.33
2024-02-10T16:57:23.987Z,33.07
2024-02-10T17:02:25.602Z,17.70
2024-02-10T17:07:31.179Z,9.07
2024-02-10T17:12:33.723Z,7.60
2024-02-10T17:17:35.478Z,7.47
2024-02-10T17:22:37.176Z,8.43
2024-02-10T17:27:38.816Z,7.87
2024-02-10T17:32:40.911Z,9.47
2024-02-10T17:37:42.922Z,9.30
2024-02-10T17:42:44.603Z,15.17
2024-02-10T17:47:56.596Z,14.87
2024-02-10T17:53:07.866Z,13.80
2024-02-10T17:58:17.287Z,14.27
2024-02-10T18:03:22.975Z,14.73
2024-02-10T18:08:25.142Z,14.03
2024-02-10T18:13:26.945Z,14.47
2024-02-10T18:18:33.129Z,15.67
2024-02-10T18:23:35.692Z,14.43
2024-02-10T18:28:37.691Z,13.83
2024-02-10T18:33:39.491Z,16.77
2024-02-10T18:38:41.206Z,14.97
2024-02-10T18:43:44.484Z,13.73
2024-02-10T18:48:48.998Z,14.57
2024-02-10T18:53:51.032Z,14.57
2024-02-10T18:58:53.460Z,13.73
2024-02-10T19:03:55.729Z,13.87
2024-02-10T19:08:59.171Z,12.73
2024-02-10T19:14:06.711Z,14.07
2024-02-10T19:19:08.773Z,13.00
2024-02-10T19:24:10.512Z,15.70
2024-02-10T19:29:12.608Z,15.70
2024-02-10T19:34:18.315Z,14.47
2024-02-10T19:39:23.236Z,14.33
2024-02-10T19:44:26.041Z,14.83
2024-02-10T19:49:28.112Z,11.57
2024-02-10T19:54:29.819Z,12.17
2024-02-10T19:59:31.629Z,12.07
2024-02-10T20:04:36.374Z,11.87
2024-02-10T20:09:38.113Z,11.77
2024-02-10T20:14:41.084Z,10.30
2024-02-10T20:19:45.599Z,11.53
2024-02-10T20:24:47.772Z,11.07
2024-02-10T20:29:49.405Z,11.70
2024-02-10T20:34:51.674Z,13.03
2024-02-10T20:39:53.406Z,11.07
2024-02-10T20:44:55.250Z,10.97
2024-02-10T20:49:56.980Z,10.57
2024-02-10T20:54:58.628Z,15.17
2024-02-10T21:00:07.499Z,13.27
2024-02-10T21:05:13.227Z,13.33
2024-02-10T21:10:15.295Z,13.10
2024-02-10T21:15:18.063Z,15.90
2024-02-10T21:20:19.872Z,14.23
2024-02-10T21:25:22.289Z,11.67
2024-02-10T21:30:24.180Z,13.23
2024-02-10T21:35:27.860Z,12.17
2024-02-10T21:40:29.553Z,12.63
2024-02-10T21:45:32.426Z,13.70
2024-02-10T21:50:34.102Z,14.13
2024-02-10T21:55:39.449Z,12.93
2024-02-10T22:00:41.182Z,13.67
2024-02-10T22:05:42.974Z,15.57
2024-02-10T22:10:44.622Z,14.80
2024-02-10T22:15:49.996Z,15.77
2024-02-10T22:20:51.693Z,14.00
2024-02-10T22:25:53.415Z,13.17
2024-02-10T22:30:55.954Z,13.87
2024-02-10T22:35:58.563Z,14.50
2024-02-10T22:41:01.335Z,14.40
2024-02-10T22:46:03.484Z,14.60
2024-02-10T22:51:05.134Z,14.20
2024-02-10T22:56:09.075Z,14.10
2024-02-10T23:01:10.897Z,13.77
2024-02-10T23:06:15.179Z,15.33
2024-02-10T23:11:18.289Z,14.50
2024-02-10T23:16:23.909Z,14.73
2024-02-10T23:21:27.795Z,14.13
2024-02-10T23:26:30.436Z,12.97
2024-02-10T23:31:32.398Z,13.63
2024-02-10T23:36:38.193Z,14.10
2024-02-10T23:41:39.818Z,14.17
2024-02-10T23:46:43.040Z,14.03
2024-02-10T23:51:44.831Z,14.00
2024-02-10T23:56:46.479Z,14.03
